sensor_id;sensor_type;location;lat;lon;timestamp;pressure;altitude;pressure_sealevel;temperature;humidity
46223;BME280;31943;51.410;7.564;2022-10-22T00:01:26;99750.88;;;14.84;71.89
46223;BME280;31943;51.410;7.564;2022-10-22T00:03:57;99748.19;;;14.86;72.10
46223;BME280;31943;51.410;7.564;2022-10-22T00:06:32;99748.19;;;14.87;71.83
46223;BME280;31943;51.410;7.564;2022-10-22T00:09:21;99749.94;;;14.88;71.87
46223;BME280;31943;51.410;7.564;2022-10-22T00:14:30;99758.66;;;14.89;71.91
46223;BME280;31943;51.410;7.564;2022-10-22T00:17:02;99758.69;;;14.87;71.31
46223;BME280;31943;51.410;7.564;2022-10-22T00:20:00;99757.81;;;14.87;71.52
46223;BME280;31943;51.410;7.564;2022-10-22T00:22:26;99751.66;;;14.88;71.52
46223;BME280;31943;51.410;7.564;2022-10-22T00:24:55;99763.97;;;14.86;71.32
46223;BME280;31943;51.410;7.564;2022-10-22T00:27:22;99763.09;;;14.85;71.45
46223;BME280;31943;51.410;7.564;2022-10-22T00:29:48;99754.38;;;14.83;71.45
46223;BME280;31943;51.410;7.564;2022-10-22T00:32:15;99754.38;;;14.83;71.25
46223;BME280;31943;51.410;7.564;2022-10-22T00:34:47;99751.75;;;14.81;71.23
46223;BME280;31943;51.410;7.564;2022-10-22T00:37:14;99760.56;;;14.80;71.16
46223;BME280;31943;51.410;7.564;2022-10-22T00:39:48;99768.44;;;14.80;71.13
46223;BME280;31943;51.410;7.564;2022-10-22T00:42:21;99766.69;;;14.79;71.29
46223;BME280;31943;51.410;7.564;2022-10-22T00:45:09;99766.72;;;14.78;70.88
46223;BME280;31943;51.410;7.564;2022-10-22T00:47:42;99767.63;;;14.75;70.83
46223;BME280;31943;51.410;7.564;2022-10-22T00:50:15;99761.50;;;14.75;71.04
46223;BME280;31943;51.410;7.564;2022-10-22T00:52:43;99768.53;;;14.74;70.99
46223;BME280;31943;51.410;7.564;2022-10-22T00:55:12;99763.28;;;14.73;71.16
46223;BME280;31943;51.410;7.564;2022-10-22T00:57:39;99774.66;;;14.72;70.98
46223;BME280;31943;51.410;7.564;2022-10-22T01:00:09;99775.56;;;14.72;71.25
46223;BME280;31943;51.410;7.564;2022-10-22T01:02:35;99770.34;;;14.69;70.97
46223;BME280;31943;51.410;7.564;2022-10-22T01:05:02;99764.28;;;14.64;71.09
46223;BME280;31943;51.410;7.564;2022-10-22T01:07:35;99760.78;;;14.63;71.22
46223;BME280;31943;51.410;7.564;2022-10-22T01:10:11;99758.16;;;14.63;71.25
46223;BME280;31943;51.410;7.564;2022-10-22T01:12:50;99753.78;;;14.64;71.39
46223;BME280;31943;51.410;7.564;2022-10-22T01:15:22;99759.03;;;14.64;71.33
46223;BME280;31943;51.410;7.564;2022-10-22T01:17:55;99765.16;;;14.65;71.38
46223;BME280;31943;51.410;7.564;2022-10-22T01:20:52;99752.91;;;14.65;71.00
46223;BME280;31943;51.410;7.564;2022-10-22T01:23:46;99747.69;;;14.62;71.09
46223;BME280;31943;51.410;7.564;2022-10-22T01:26:22;99748.59;;;14.61;71.27
46223;BME280;31943;51.410;7.564;2022-10-22T01:28:59;99751.22;;;14.59;71.05
46223;BME280;31943;51.410;7.564;2022-10-22T01:31:30;99739.91;;;14.53;70.97
46223;BME280;31943;51.410;7.564;2022-10-22T01:33:59;99741.69;;;14.51;71.08
46223;BME280;31943;51.410;7.564;2022-10-22T01:36:49;99747.81;;;14.50;71.31
46223;BME280;31943;51.410;7.564;2022-10-22T01:39:19;99740.84;;;14.49;71.34
46223;BME280;31943;51.410;7.564;2022-10-22T01:42:06;99732.09;;;14.48;71.25
46223;BME280;31943;51.410;7.564;2022-10-22T01:44:36;99731.22;;;14.48;71.32
46223;BME280;31943;51.410;7.564;2022-10-22T01:47:26;99726.91;;;14.45;71.29
46223;BME280;31943;51.410;7.564;2022-10-22T01:50:27;99713.91;;;14.36;71.24
46223;BME280;31943;51.410;7.564;2022-10-22T01:53:09;99720.91;;;14.35;71.38
46223;BME280;31943;51.410;7.564;2022-10-22T01:55:47;99721.78;;;14.36;71.39
46223;BME280;31943;51.410;7.564;2022-10-22T01:58:23;99712.13;;;14.36;71.14
46223;BME280;31943;51.410;7.564;2022-10-22T02:01:23;99707.81;;;14.32;71.17
46223;BME280;31943;51.410;7.564;2022-10-22T02:03:55;99702.66;;;14.26;71.21
46223;BME280;31943;51.410;7.564;2022-10-22T02:06:26;99706.19;;;14.25;71.25
46223;BME280;31943;51.410;7.564;2022-10-22T02:08:56;99704.44;;;14.24;71.42
46223;BME280;31943;51.410;7.564;2022-10-22T02:11:22;99702.66;;;14.26;71.19
46223;BME280;31943;51.410;7.564;2022-10-22T02:13:52;99708.75;;;14.27;71.18
46223;BME280;31943;51.410;7.564;2022-10-22T02:16:27;99710.53;;;14.26;71.26
46223;BME280;31943;51.410;7.564;2022-10-22T02:19:00;99708.00;;;14.20;70.90
46223;BME280;31943;51.410;7.564;2022-10-22T02:21:30;99713.38;;;14.09;71.04
46223;BME280;31943;51.410;7.564;2022-10-22T02:23:56;99717.84;;;14.01;71.13
46223;BME280;31943;51.410;7.564;2022-10-22T02:26:30;99719.63;;;14.00;71.49
46223;BME280;31943;51.410;7.564;2022-10-22T02:29:07;99732.72;;;14.00;71.68
46223;BME280;31943;51.410;7.564;2022-10-22T02:31:43;99723.94;;;14.03;71.68
46223;BME280;31943;51.410;7.564;2022-10-22T02:34:16;99715.22;;;14.02;71.75
46223;BME280;31943;51.410;7.564;2022-10-22T02:36:46;99717.84;;;14.02;71.73
46223;BME280;31943;51.410;7.564;2022-10-22T02:39:14;99720.53;;;13.98;71.71
46223;BME280;31943;51.410;7.564;2022-10-22T02:41:42;99717.16;;;13.88;71.61
46223;BME280;31943;51.410;7.564;2022-10-22T02:44:19;99725.00;;;13.88;71.80
46223;BME280;31943;51.410;7.564;2022-10-22T02:46:48;99736.34;;;13.90;71.57
46223;BME280;31943;51.410;7.564;2022-10-22T02:49:16;99734.75;;;13.77;71.51
46223;BME280;31943;51.410;7.564;2022-10-22T02:51:41;99733.19;;;13.60;72.07
46223;BME280;31943;51.410;7.564;2022-10-22T02:54:11;99734.94;;;13.60;72.44
46223;BME280;31943;51.410;7.564;2022-10-22T02:56:37;99729.63;;;13.66;72.67
46223;BME280;31943;51.410;7.564;2022-10-22T02:59:03;99742.75;;;13.64;72.61
46223;BME280;31943;51.410;7.564;2022-10-22T03:01:29;99733.19;;;13.60;72.44
46223;BME280;31943;51.410;7.564;2022-10-22T03:03:59;99730.56;;;13.60;72.63
46223;BME280;31943;51.410;7.564;2022-10-22T03:06:27;99732.34;;;13.58;72.14
46223;BME280;31943;51.410;7.564;2022-10-22T03:08:53;99735.91;;;13.53;72.18
46223;BME280;31943;51.410;7.564;2022-10-22T03:11:20;99740.25;;;13.54;72.29
46223;BME280;31943;51.410;7.564;2022-10-22T03:13:47;99734.97;;;13.58;72.48
46223;BME280;31943;51.410;7.564;2022-10-22T03:16:12;99741.06;;;13.60;72.44
46223;BME280;31943;51.410;7.564;2022-10-22T03:18:38;99752.41;;;13.62;72.27
46223;BME280;31943;51.410;7.564;2022-10-22T03:21:09;99744.47;;;13.65;72.45
46223;BME280;31943;51.410;7.564;2022-10-22T03:23:38;99750.56;;;13.71;71.87
46223;BME280;31943;51.410;7.564;2022-10-22T03:26:06;99754.09;;;13.68;71.78
46223;BME280;31943;51.410;7.564;2022-10-22T03:28:38;99757.59;;;13.64;71.68
46223;BME280;31943;51.410;7.564;2022-10-22T03:31:06;99748.00;;;13.64;71.95
46223;BME280;31943;51.410;7.564;2022-10-22T03:33:32;99746.31;;;13.57;71.67
46223;BME280;31943;51.410;7.564;2022-10-22T03:36:01;99754.31;;;13.47;71.55
46223;BME280;31943;51.410;7.564;2022-10-22T03:38:29;99766.66;;;13.32;71.81
46223;BME280;31943;51.410;7.564;2022-10-22T03:40:56;99762.34;;;13.23;72.13
46223;BME280;31943;51.410;7.564;2022-10-22T03:43:23;99750.13;;;13.21;72.26
46223;BME280;31943;51.410;7.564;2022-10-22T03:45:49;99758.03;;;13.16;72.43
46223;BME280;31943;51.410;7.564;2022-10-22T03:48:15;99758.97;;;13.08;72.38
46223;BME280;31943;51.410;7.564;2022-10-22T03:50:41;99754.59;;;13.06;73.22
46223;BME280;31943;51.410;7.564;2022-10-22T03:53:07;99758.03;;;13.15;73.73
46223;BME280;31943;51.410;7.564;2022-10-22T03:55:51;99761.41;;;13.31;74.83
46223;BME280;31943;51.410;7.564;2022-10-22T03:58:17;99761.41;;;13.35;75.12
46223;BME280;31943;51.410;7.564;2022-10-22T04:00:44;99766.50;;;13.49;75.52
46223;BME280;31943;51.410;7.564;2022-10-22T04:03:10;99763.84;;;13.52;74.76
46223;BME280;31943;51.410;7.564;2022-10-22T04:05:37;99769.16;;;13.46;74.49
46223;BME280;31943;51.410;7.564;2022-10-22T04:08:04;99770.13;;;13.34;73.85
46223;BME280;31943;51.410;7.564;2022-10-22T04:10:30;99778.06;;;13.20;73.55
46223;BME280;31943;51.410;7.564;2022-10-22T04:12:58;99781.72;;;13.02;73.53
46223;BME280;31943;51.410;7.564;2022-10-22T04:15:25;99786.13;;;12.96;73.88
46223;BME280;31943;51.410;7.564;2022-10-22T04:17:54;99781.75;;;12.95;73.97
46223;BME280;31943;51.410;7.564;2022-10-22T04:20:21;99783.53;;;12.91;74.00
46223;BME280;31943;51.410;7.564;2022-10-22T04:22:47;99783.47;;;12.97;74.24
46223;BME280;31943;51.410;7.564;2022-10-22T04:25:14;99794.75;;;13.10;74.54
46223;BME280;31943;51.410;7.564;2022-10-22T04:27:40;99786.78;;;13.22;74.62
46223;BME280;31943;51.410;7.564;2022-10-22T04:30:09;99791.09;;;13.34;75.21
46223;BME280;31943;51.410;7.564;2022-10-22T04:32:35;99783.09;;;13.48;75.86
46223;BME280;31943;51.410;7.564;2022-10-22T04:35:01;99785.63;;;13.60;76.47
46223;BME280;31943;51.410;7.564;2022-10-22T04:37:27;99786.34;;;13.73;76.66
46223;BME280;31943;51.410;7.564;2022-10-22T04:39:52;99784.50;;;13.84;77.01
46223;BME280;31943;51.410;7.564;2022-10-22T04:42:18;99790.50;;;13.96;77.50
46223;BME280;31943;51.410;7.564;2022-10-22T04:44:45;99791.28;;;14.06;77.75
46223;BME280;31943;51.410;7.564;2022-10-22T04:47:13;99792.91;;;14.13;78.05
46223;BME280;31943;51.410;7.564;2022-10-22T04:49:39;99780.56;;;14.21;77.82
46223;BME280;31943;51.410;7.564;2022-10-22T04:52:05;99790.97;;;14.30;77.89
46223;BME280;31943;51.410;7.564;2022-10-22T04:54:31;99785.59;;;14.39;77.74
46223;BME280;31943;51.410;7.564;2022-10-22T04:57:01;99791.59;;;14.48;77.79
46223;BME280;31943;51.410;7.564;2022-10-22T04:59:28;99795.00;;;14.54;77.95
46223;BME280;31943;51.410;7.564;2022-10-22T05:01:57;99789.75;;;14.54;77.88
46223;BME280;31943;51.410;7.564;2022-10-22T05:04:26;99792.38;;;14.56;78.30
46223;BME280;31943;51.410;7.564;2022-10-22T05:06:52;99793.22;;;14.59;78.00
46223;BME280;31943;51.410;7.564;2022-10-22T05:09:19;99793.13;;;14.67;78.02
46223;BME280;31943;51.410;7.564;2022-10-22T05:11:48;99796.56;;;14.72;77.85
46223;BME280;31943;51.410;7.564;2022-10-22T05:14:16;99799.97;;;14.77;77.50
46223;BME280;31943;51.410;7.564;2022-10-22T05:16:43;99797.38;;;14.76;77.49
46223;BME280;31943;51.410;7.564;2022-10-22T05:19:15;99800.81;;;14.79;77.42
46223;BME280;31943;51.410;7.564;2022-10-22T05:21:42;99799.97;;;14.79;77.59
46223;BME280;31943;51.410;7.564;2022-10-22T05:24:08;99802.50;;;14.83;77.40
46223;BME280;31943;51.410;7.564;2022-10-22T05:26:34;99806.88;;;14.86;77.00
46223;BME280;31943;51.410;7.564;2022-10-22T05:29:00;99807.75;;;14.87;76.90
46223;BME280;31943;51.410;7.564;2022-10-22T05:31:26;99801.63;;;14.86;76.68
46223;BME280;31943;51.410;7.564;2022-10-22T05:33:52;99805.13;;;14.85;77.14
46223;BME280;31943;51.410;7.564;2022-10-22T05:36:22;99816.47;;;14.89;76.48
46223;BME280;31943;51.410;7.564;2022-10-22T05:38:50;99816.50;;;14.86;76.56
46223;BME280;31943;51.410;7.564;2022-10-22T05:41:18;99819.09;;;14.87;76.75
46223;BME280;31943;51.410;7.564;2022-10-22T05:43:44;99825.19;;;14.89;76.43
46223;BME280;31943;51.410;7.564;2022-10-22T05:46:12;99826.94;;;14.92;76.28
46223;BME280;31943;51.410;7.564;2022-10-22T05:48:39;99826.06;;;14.91;76.06
46223;BME280;31943;51.410;7.564;2022-10-22T05:51:09;99828.75;;;14.87;76.43
46223;BME280;31943;51.410;7.564;2022-10-22T05:53:36;99833.09;;;14.89;76.26
46223;BME280;31943;51.410;7.564;2022-10-22T05:56:06;99840.97;;;14.89;76.16
46223;BME280;31943;51.410;7.564;2022-10-22T05:58:33;99855.00;;;14.90;76.29
46223;BME280;31943;51.410;7.564;2022-10-22T06:01:02;99853.25;;;14.89;76.84
46223;BME280;31943;51.410;7.564;2022-10-22T06:03:28;99846.22;;;14.89;76.92
46223;BME280;31943;51.410;7.564;2022-10-22T06:05:54;99847.97;;;14.92;77.06
46223;BME280;31943;51.410;7.564;2022-10-22T06:08:20;99847.88;;;14.98;76.92
46223;BME280;31943;51.410;7.564;2022-10-22T06:10:46;99843.47;;;15.00;76.71
46223;BME280;31943;51.410;7.564;2022-10-22T06:13:16;99855.66;;;15.04;76.58
46223;BME280;31943;51.410;7.564;2022-10-22T06:15:42;99858.22;;;15.07;76.24
46223;BME280;31943;51.410;7.564;2022-10-22T06:18:08;99858.28;;;15.06;75.96
46223;BME280;31943;51.410;7.564;2022-10-22T06:20:35;99862.63;;;15.07;76.11
46223;BME280;31943;51.410;7.564;2022-10-22T06:23:01;99859.16;;;15.03;76.04
46223;BME280;31943;51.410;7.564;2022-10-22T06:25:26;99867.00;;;15.08;75.63
46223;BME280;31943;51.410;7.564;2022-10-22T06:27:52;99867.00;;;15.06;75.69
46223;BME280;31943;51.410;7.564;2022-10-22T06:30:20;99870.59;;;15.00;75.92
46223;BME280;31943;51.410;7.564;2022-10-22T06:32:46;99876.69;;;15.02;75.98
46223;BME280;31943;51.410;7.564;2022-10-22T06:35:11;99878.41;;;15.05;75.92
46223;BME280;31943;51.410;7.564;2022-10-22T06:37:37;99879.25;;;15.07;76.03
46223;BME280;31943;51.410;7.564;2022-10-22T06:40:04;99883.63;;;15.08;76.09
46223;BME280;31943;51.410;7.564;2022-10-22T06:42:30;99885.31;;;15.12;76.06
46223;BME280;31943;51.410;7.564;2022-10-22T06:44:56;99891.41;;;15.14;75.94
46223;BME280;31943;51.410;7.564;2022-10-22T06:47:42;99901.06;;;15.15;76.01
46223;BME280;31943;51.410;7.564;2022-10-22T06:50:29;99894.88;;;15.16;76.04
46223;BME280;31943;51.410;7.564;2022-10-22T06:53:01;99899.28;;;15.16;76.03
46223;BME280;31943;51.410;7.564;2022-10-22T06:55:41;99901.91;;;15.16;75.90
46223;BME280;31943;51.410;7.564;2022-10-22T06:58:31;99906.25;;;15.18;76.00
46223;BME280;31943;51.410;7.564;2022-10-22T07:01:02;99905.38;;;15.18;76.01
46223;BME280;31943;51.410;7.564;2022-10-22T07:21:30;99955.88;;;15.40;75.77
46223;BME280;31943;51.410;7.564;2022-10-22T07:24:19;99955.84;;;15.45;75.32
46223;BME280;31943;51.410;7.564;2022-10-22T07:26:47;99959.25;;;15.48;75.70
46223;BME280;31943;51.410;7.564;2022-10-22T07:29:13;99962.69;;;15.55;75.29
46223;BME280;31943;51.410;7.564;2022-10-22T07:31:59;99960.91;;;15.55;75.24
46223;BME280;31943;51.410;7.564;2022-10-22T07:34:37;99964.38;;;15.60;75.35
46223;BME280;31943;51.410;7.564;2022-10-22T07:40:11;99964.19;;;15.71;74.97
46223;BME280;31943;51.410;7.564;2022-10-22T07:43:23;99971.19;;;15.74;75.30
46223;BME280;31943;51.410;7.564;2022-10-22T07:49:59;99966.78;;;15.76;74.69
46223;BME280;31943;51.410;7.564;2022-10-22T07:52:39;99973.81;;;15.74;74.58
46223;BME280;31943;51.410;7.564;2022-10-22T07:55:23;99971.19;;;15.74;74.62
46223;BME280;31943;51.410;7.564;2022-10-22T07:57:54;99989.56;;;15.77;74.32
46223;BME280;31943;51.410;7.564;2022-10-22T08:00:30;99992.22;;;15.75;73.95
46223;BME280;31943;51.410;7.564;2022-10-22T08:03:07;99987.84;;;15.74;73.87
46223;BME280;31943;51.410;7.564;2022-10-22T08:05:56;99982.50;;;15.80;73.73
46223;BME280;31943;51.410;7.564;2022-10-22T08:08:39;99989.44;;;15.86;73.80
46223;BME280;31943;51.410;7.564;2022-10-22T08:14:23;99994.53;;;15.95;73.32
46223;BME280;31943;51.410;7.564;2022-10-22T08:16:51;100004.19;;;15.95;73.23
46223;BME280;31943;51.410;7.564;2022-10-22T08:19:18;100002.41;;;15.97;73.02
46223;BME280;31943;51.410;7.564;2022-10-22T08:22:06;100000.63;;;15.97;72.92
46223;BME280;31943;51.410;7.564;2022-10-22T08:24:38;99998.78;;;16.04;72.85
46223;BME280;31943;51.410;7.564;2022-10-22T08:27:21;100004.91;;;16.06;72.37
46223;BME280;31943;51.410;7.564;2022-10-22T08:32:54;100011.00;;;16.08;72.35
46223;BME280;31943;51.410;7.564;2022-10-22T08:35:23;100018.81;;;16.13;71.88
46223;BME280;31943;51.410;7.564;2022-10-22T08:37:56;100015.28;;;16.15;72.09
46223;BME280;31943;51.410;7.564;2022-10-22T08:40:29;100023.13;;;16.17;71.49
46223;BME280;31943;51.410;7.564;2022-10-22T08:43:20;100024.78;;;16.23;71.40
46223;BME280;31943;51.410;7.564;2022-10-22T08:46:04;100029.09;;;16.27;71.23
46223;BME280;31943;51.410;7.564;2022-10-22T08:48:42;100034.34;;;16.30;70.72
46223;BME280;31943;51.410;7.564;2022-10-22T08:51:14;100036.88;;;16.34;71.01
46223;BME280;31943;51.410;7.564;2022-10-22T08:53:47;100046.56;;;16.34;70.40
46223;BME280;31943;51.410;7.564;2022-10-22T08:56:16;100047.41;;;16.34;70.31
46223;BME280;31943;51.410;7.564;2022-10-22T08:58:46;100046.47;;;16.38;70.24
46223;BME280;31943;51.410;7.564;2022-10-22T09:01:18;100047.22;;;16.47;70.06
46223;BME280;31943;51.410;7.564;2022-10-22T09:07:09;100053.25;;;16.53;69.71
46223;BME280;31943;51.410;7.564;2022-10-22T09:09:41;100052.38;;;16.53;69.50
46223;BME280;31943;51.410;7.564;2022-10-22T09:12:10;100065.47;;;16.56;69.30
46223;BME280;31943;51.410;7.564;2022-10-22T09:14:38;100060.19;;;16.57;69.19
46223;BME280;31943;51.410;7.564;2022-10-22T09:17:12;100059.34;;;16.55;69.13
46223;BME280;31943;51.410;7.564;2022-10-22T09:19:57;100064.72;;;16.51;69.14
46223;BME280;31943;51.410;7.564;2022-10-22T09:22:33;100061.19;;;16.50;69.29
46223;BME280;31943;51.410;7.564;2022-10-22T09:25:14;100072.63;;;16.49;68.79
46223;BME280;31943;51.410;7.564;2022-10-22T09:27:45;100072.56;;;16.52;69.13
46223;BME280;31943;51.410;7.564;2022-10-22T09:30:15;100079.63;;;16.50;68.84
46223;BME280;31943;51.410;7.564;2022-10-22T09:32:41;100079.66;;;16.49;69.20
46223;BME280;31943;51.410;7.564;2022-10-22T09:35:10;100084.94;;;16.49;69.14
46223;BME280;31943;51.410;7.564;2022-10-22T09:37:47;100082.38;;;16.44;69.33
46223;BME280;31943;51.410;7.564;2022-10-22T09:40:14;100087.69;;;16.43;69.32
46223;BME280;31943;51.410;7.564;2022-10-22T09:42:42;100090.31;;;16.43;69.13
46223;BME280;31943;51.410;7.564;2022-10-22T09:45:17;100093.81;;;16.43;68.92
46223;BME280;31943;51.410;7.564;2022-10-22T09:47:44;100097.31;;;16.42;69.12
46223;BME280;31943;51.410;7.564;2022-10-22T09:50:19;100108.69;;;16.44;68.96
46223;BME280;31943;51.410;7.564;2022-10-22T09:52:54;100099.84;;;16.50;69.27
46223;BME280;31943;51.410;7.564;2022-10-22T09:55:23;100098.84;;;16.55;68.67
46223;BME280;31943;51.410;7.564;2022-10-22T09:57:52;100107.56;;;16.60;68.77
46223;BME280;31943;51.410;7.564;2022-10-22T10:00:18;100111.94;;;16.61;68.93
46223;BME280;31943;51.410;7.564;2022-10-22T10:03:03;100111.78;;;16.69;68.76
46223;BME280;31943;51.410;7.564;2022-10-22T10:05:35;100114.31;;;16.77;68.53
46223;BME280;31943;51.410;7.564;2022-10-22T10:08:11;100109.78;;;16.85;68.17
46223;BME280;31943;51.410;7.564;2022-10-22T10:10:42;100118.53;;;16.87;68.33
46223;BME280;31943;51.410;7.564;2022-10-22T10:13:38;100119.31;;;16.94;68.31
46223;BME280;31943;51.410;7.564;2022-10-22T10:16:14;100122.84;;;16.91;68.08
46223;BME280;31943;51.410;7.564;2022-10-22T10:19:05;100124.59;;;16.92;68.09
46223;BME280;31943;51.410;7.564;2022-10-22T10:21:41;100127.41;;;16.82;68.09
46223;BME280;31943;51.410;7.564;2022-10-22T10:24:19;100119.56;;;16.78;68.10
46223;BME280;31943;51.410;7.564;2022-10-22T10:26:57;100124.75;;;16.85;68.42
46223;BME280;31943;51.410;7.564;2022-10-22T10:29:48;100130.75;;;16.91;68.15
46223;BME280;31943;51.410;7.564;2022-10-22T10:32:33;100123.81;;;16.87;68.08
46223;BME280;31943;51.410;7.564;2022-10-22T14:05:45;100180.47;;;17.13;60.79
46223;BME280;31943;51.410;7.564;2022-10-22T14:08:15;100186.63;;;17.13;60.53
46223;BME280;31943;51.410;7.564;2022-10-22T14:10:44;100183.16;;;17.10;60.85
46223;BME280;31943;51.410;7.564;2022-10-22T14:13:42;100191.97;;;17.09;60.49
46223;BME280;31943;51.410;7.564;2022-10-22T14:16:16;100184.88;;;17.12;60.34
46223;BME280;31943;51.410;7.564;2022-10-22T14:18:43;100190.25;;;17.08;59.62
46223;BME280;31943;51.410;7.564;2022-10-22T14:21:35;100197.34;;;17.03;59.71
46223;BME280;31943;51.410;7.564;2022-10-22T14:24:01;100202.63;;;17.03;60.13
46223;BME280;31943;51.410;7.564;2022-10-22T14:26:53;100197.28;;;17.07;60.43
46223;BME280;31943;51.410;7.564;2022-10-22T14:29:19;100195.41;;;17.12;60.44
46223;BME280;31943;51.410;7.564;2022-10-22T14:32:00;100204.16;;;17.14;60.64
46223;BME280;31943;51.410;7.564;2022-10-22T14:34:26;100204.13;;;17.17;60.22
46223;BME280;31943;51.410;7.564;2022-10-22T14:36:54;100205.81;;;17.22;60.47
46223;BME280;31943;51.410;7.564;2022-10-22T14:39:21;100198.84;;;17.17;60.59
46223;BME280;31943;51.410;7.564;2022-10-22T14:41:50;100204.16;;;17.16;60.33
46223;BME280;31943;51.410;7.564;2022-10-22T14:44:16;100197.94;;;17.18;60.53
46223;BME280;31943;51.410;7.564;2022-10-22T14:46:42;100199.69;;;17.19;59.97
46223;BME280;31943;51.410;7.564;2022-10-22T14:49:07;100199.63;;;17.23;60.55
46223;BME280;31943;51.410;7.564;2022-10-22T14:51:33;100191.75;;;17.21;60.45
46223;BME280;31943;51.410;7.564;2022-10-22T14:54:02;100198.78;;;17.20;60.30
46223;BME280;31943;51.410;7.564;2022-10-22T14:56:29;100197.88;;;17.23;60.39
46223;BME280;31943;51.410;7.564;2022-10-22T14:58:56;100201.34;;;17.25;60.24
46223;BME280;31943;51.410;7.564;2022-10-22T15:01:22;100193.44;;;17.25;60.76
46223;BME280;31943;51.410;7.564;2022-10-22T15:03:48;100196.09;;;17.25;60.28
46223;BME280;31943;51.410;7.564;2022-10-22T15:06:15;100195.97;;;17.31;60.55
46223;BME280;31943;51.410;7.564;2022-10-22T15:08:41;100196.78;;;17.35;60.12
46223;BME280;31943;51.410;7.564;2022-10-22T15:17:19;100198.47;;;17.39;60.36
46223;BME280;31943;51.410;7.564;2022-10-22T15:19:48;100199.31;;;17.41;60.43
46223;BME280;31943;51.410;7.564;2022-10-22T15:22:18;100191.31;;;17.44;60.19
46223;BME280;31943;51.410;7.564;2022-10-22T15:24:46;100188.69;;;17.44;60.74
46223;BME280;31943;51.410;7.564;2022-10-22T15:27:13;100200.13;;;17.43;61.43
46223;BME280;31943;51.410;7.564;2022-10-22T15:29:40;100197.47;;;17.45;61.59
46223;BME280;31943;51.410;7.564;2022-10-22T15:32:08;100198.38;;;17.44;60.99
46223;BME280;31943;51.410;7.564;2022-10-22T15:37:54;100209.03;;;17.37;61.33
46223;BME280;31943;51.410;7.564;2022-10-22T15:40:47;100207.34;;;17.33;60.71
46223;BME280;31943;51.410;7.564;2022-10-22T15:43:24;100204.75;;;17.30;61.32
46223;BME280;31943;51.410;7.564;2022-10-22T15:48:53;100203.16;;;17.23;61.24
46223;BME280;31943;51.410;7.564;2022-10-22T15:51:23;100211.97;;;17.20;61.67
46223;BME280;31943;51.410;7.564;2022-10-22T15:54:16;100200.66;;;17.15;61.90
46223;BME280;31943;51.410;7.564;2022-10-22T15:56:51;100204.16;;;17.14;61.84
46223;BME280;31943;51.410;7.564;2022-10-22T15:59:37;100203.31;;;17.14;62.10
46223;BME280;31943;51.410;7.564;2022-10-22T16:02:40;100205.09;;;17.12;62.02
46223;BME280;31943;51.410;7.564;2022-10-22T16:05:13;100200.72;;;17.11;62.29
46223;BME280;31943;51.410;7.564;2022-10-22T16:07:55;100202.50;;;17.10;62.58
46223;BME280;31943;51.410;7.564;2022-10-22T16:10:56;100213.16;;;17.04;62.75
46223;BME280;31943;51.410;7.564;2022-10-22T16:13:24;100214.97;;;16.99;62.75
46223;BME280;31943;51.410;7.564;2022-10-22T16:16:07;100215.09;;;16.93;63.30
46223;BME280;31943;51.410;7.564;2022-10-22T16:18:37;100222.22;;;16.88;62.80
46223;BME280;31943;51.410;7.564;2022-10-22T16:21:17;100220.53;;;16.80;63.55
46223;BME280;31943;51.410;7.564;2022-10-22T16:23:44;100223.28;;;16.73;63.52
46223;BME280;31943;51.410;7.564;2022-10-22T16:29:27;100227.06;;;16.56;63.28
46223;BME280;31943;51.410;7.564;2022-10-22T16:32:13;100228.06;;;16.46;64.01
46223;BME280;31943;51.410;7.564;2022-10-22T16:34:41;100233.50;;;16.34;63.89
46223;BME280;31943;51.410;7.564;2022-10-22T16:37:12;100234.53;;;16.25;64.13
46223;BME280;31943;51.410;7.564;2022-10-22T16:39:41;100238.97;;;16.18;64.25
46223;BME280;31943;51.410;7.564;2022-10-22T16:45:42;100233.88;;;16.06;64.30
46223;BME280;31943;51.410;7.564;2022-10-22T16:48:12;100236.63;;;15.97;64.42
46223;BME280;31943;51.410;7.564;2022-10-22T16:50:41;100245.47;;;15.91;64.22
46223;BME280;31943;51.410;7.564;2022-10-22T16:53:08;100245.53;;;15.87;64.36
46223;BME280;31943;51.410;7.564;2022-10-22T16:55:36;100241.19;;;15.81;64.27
46223;BME280;31943;51.410;7.564;2022-10-22T16:58:14;100243.03;;;15.74;64.48
46223;BME280;31943;51.410;7.564;2022-10-22T17:04:04;100245.78;;;15.60;64.29
46223;BME280;31943;51.410;7.564;2022-10-22T17:06:40;100236.22;;;15.53;64.70
46223;BME280;31943;51.410;7.564;2022-10-22T17:09:26;100238.91;;;15.49;64.81
46223;BME280;31943;51.410;7.564;2022-10-22T17:11:56;100241.59;;;15.41;64.75
46223;BME280;31943;51.410;7.564;2022-10-22T17:14:34;100242.56;;;15.31;64.66
46223;BME280;31943;51.410;7.564;2022-10-22T17:17:02;100242.63;;;15.26;64.75
46223;BME280;31943;51.410;7.564;2022-10-22T17:19:50;100246.16;;;15.22;65.15
46223;BME280;31943;51.410;7.564;2022-10-22T17:22:28;100243.53;;;15.20;65.06
46223;BME280;31943;51.410;7.564;2022-10-22T17:25:31;100245.31;;;15.18;64.77
46223;BME280;31943;51.410;7.564;2022-10-22T17:28:20;100240.97;;;15.13;65.08
46223;BME280;31943;51.410;7.564;2022-10-22T17:30:50;100252.41;;;15.10;65.12
46223;BME280;31943;51.410;7.564;2022-10-22T17:33:18;100255.06;;;15.06;65.60
46223;BME280;31943;51.410;7.564;2022-10-22T17:35:54;100255.09;;;15.02;65.82
46223;BME280;31943;51.410;7.564;2022-10-22T17:38:21;100265.59;;;15.01;65.53
46223;BME280;31943;51.410;7.564;2022-10-22T17:40:52;100270.00;;;15.00;65.40
46223;BME280;31943;51.410;7.564;2022-10-22T17:43:40;100275.25;;;14.97;65.15
46223;BME280;31943;51.410;7.564;2022-10-22T17:46:08;100266.56;;;14.94;65.21
46223;BME280;31943;51.410;7.564;2022-10-22T17:48:36;100266.56;;;14.91;65.32
46223;BME280;31943;51.410;7.564;2022-10-22T17:51:07;100270.09;;;14.87;65.30
46223;BME280;31943;51.410;7.564;2022-10-22T17:53:42;100273.63;;;14.79;65.77